Time;durP1;ratioP1;P1;durP2;ratioP2;P2;SDS_P1;SDS_P2;PMS_P1;PMS_P2;Temp;Humidity;BMP_temperature;BMP_pressure;BME280_temperature;BME280_humidity;BME280_pressure;Samples;Min_cycle;Max_cycle;Signal;HPM_P1;HPM_P2
2023/02/01 00:01:37;;;;;;;6.50;3.65;;;;;;;2.41;76.29;97956.53;5049667;28;20053;-73
2023/02/01 00:04:03;;;;;;;7.95;4.55;;;;;;;2.36;75.31;97958.13;5051196;28;20502;-73
2023/02/01 00:06:28;;;;;;;5.18;3.20;;;;;;;2.32;75.75;97953.50;5050445;28;20021;-73
2023/02/01 00:08:54;;;;;;;4.85;2.80;;;;;;;2.28;75.94;97945.03;5051034;28;20045;-73
2023/02/01 00:11:20;;;;;;;4.75;2.83;;;;;;;2.25;75.44;97942.84;5049263;28;20025;-73
2023/02/01 00:13:46;;;;;;;5.22;3.03;;;;;;;2.23;75.93;97939.59;5050878;28;20029;-73
2023/02/01 00:16:17;;;;;;;4.25;2.47;;;;;;;2.22;75.27;97955.00;5051339;28;20019;-73
2023/02/01 00:18:47;;;;;;;5.30;3.08;;;;;;;2.21;75.85;97945.25;5050023;28;20473;-74
2023/02/01 00:21:13;;;;;;;4.83;2.90;;;;;;;2.21;75.72;97933.63;5049341;28;20025;-73
2023/02/01 00:23:39;;;;;;;6.03;3.13;;;;;;;2.23;75.76;97936.91;5050456;28;20021;-74
2023/02/01 00:26:07;;;;;;;6.72;2.90;;;;;;;2.28;75.95;97928.00;5050165;28;20036;-74
2023/02/01 00:28:33;;;;;;;5.18;2.67;;;;;;;2.30;75.78;97925.88;5050602;28;20021;-74
2023/02/01 00:31:00;;;;;;;5.10;3.10;;;;;;;2.33;76.05;97923.44;5051409;28;20103;-74
2023/02/01 00:33:26;;;;;;;5.70;3.00;;;;;;;2.36;75.70;97930.25;5053037;28;20116;-74
2023/02/01 00:35:56;;;;;;;5.63;3.03;;;;;;;2.38;75.66;97928.91;5049885;28;20112;-74
2023/02/01 00:38:21;;;;;;;;;;;;;;;2.45;76.16;97927.91;5050622;28;20120;-74
2023/02/01 00:40:46;;;;;;;6.20;2.75;;;;;;;2.48;76.09;97925.50;5050151;28;20003;-73
2023/02/01 00:43:12;;;;;;;5.55;2.70;;;;;;;2.52;75.63;97931.22;5050062;28;20071;-74
2023/02/01 00:45:37;;;;;;;5.22;2.80;;;;;;;2.55;75.69;97936.13;5050167;28;20040;-74
2023/02/01 00:48:03;;;;;;;5.63;2.67;;;;;;;2.62;75.89;97935.91;5046195;28;20043;-74
2023/02/01 00:50:28;;;;;;;4.20;2.17;;;;;;;2.66;75.42;97937.81;5049602;28;20037;-74
2023/02/01 00:52:54;;;;;;;4.25;2.70;;;;;;;2.72;74.85;97946.00;5049982;28;20136;-74
2023/02/01 00:55:19;;;;;;;4.15;2.47;;;;;;;2.75;74.61;97956.31;5049613;28;20021;-74
2023/02/01 00:57:44;;;;;;;3.20;1.65;;;;;;;2.78;74.71;97975.59;5049020;28;20074;-74
2023/02/01 01:00:10;;;;;;;2.55;1.75;;;;;;;2.84;74.65;97968.31;5048156;28;20056;-73
2023/02/01 01:02:35;;;;;;;1.63;1.38;;;;;;;2.86;74.05;97963.47;5048448;28;20024;-75
2023/02/01 01:05:01;;;;;;;3.15;1.55;;;;;;;2.87;74.23;97978.66;5049578;28;20078;-74
2023/02/01 01:07:27;;;;;;;3.38;1.50;;;;;;;2.90;74.28;97977.28;5048391;28;20562;-74
2023/02/01 01:09:52;;;;;;;2.05;1.23;;;;;;;2.94;73.77;97967.59;5048612;28;20021;-74
2023/02/01 01:12:19;;;;;;;2.42;1.30;;;;;;;2.94;74.13;97957.59;5049413;28;20032;-74
2023/02/01 01:14:45;;;;;;;3.15;1.30;;;;;;;2.99;73.84;97956.78;5049548;28;20020;-74
2023/02/01 01:17:10;;;;;;;2.30;1.33;;;;;;;3.02;73.16;97963.59;5049833;28;20024;-74
2023/02/01 01:19:36;;;;;;;5.68;1.73;;;;;;;3.04;73.76;98018.34;5050732;28;20461;-74
2023/02/01 01:22:01;;;;;;;2.25;1.50;;;;;;;3.04;73.41;98048.16;5048149;28;20029;-73
2023/02/01 01:24:26;;;;;;;1.50;0.85;;;;;;;2.93;72.47;98083.25;5050722;28;20091;-74
2023/02/01 01:26:52;;;;;;;1.08;0.63;;;;;;;2.44;74.27;98089.50;5049061;28;20021;-75
2023/02/01 01:29:17;;;;;;;1.80;0.98;;;;;;;1.93;75.23;98079.66;5050676;28;20075;-75
2023/02/01 01:31:43;;;;;;;2.55;0.95;;;;;;;1.59;76.07;98060.78;5050041;28;20094;-75
2023/02/01 01:34:08;;;;;;;4.47;1.42;;;;;;;1.38;76.12;98075.84;5050613;28;20039;-75
2023/02/01 01:36:33;;;;;;;1.98;0.60;;;;;;;1.26;76.51;98067.00;5048821;28;20029;-74
2023/02/01 01:38:59;;;;;;;5.07;0.98;;;;;;;1.13;77.49;98068.94;5049417;28;20021;-75
2023/02/01 01:41:28;;;;;;;3.40;1.05;;;;;;;0.98;77.73;98066.81;5049378;28;20059;-75
2023/02/01 01:43:56;;;;;;;2.08;0.70;;;;;;;0.87;78.27;98060.41;5049900;28;20025;-75
2023/02/01 01:46:26;;;;;;;2.42;0.80;;;;;;;0.78;77.88;98053.75;5048426;28;20473;-75
2023/02/01 01:49:01;;;;;;;1.85;0.95;;;;;;;0.76;77.75;98055.88;5050368;28;21364;-75
2023/02/01 01:51:28;;;;;;;4.03;1.35;;;;;;;0.74;78.14;98058.00;5048982;28;20083;-75
2023/02/01 01:54:09;;;;;;;2.53;0.80;;;;;;;0.71;78.12;98056.63;5050065;28;20486;-76
2023/02/01 01:56:35;;;;;;;2.33;1.15;;;;;;;0.71;78.63;98048.53;5049744;28;20027;-76
2023/02/01 01:59:02;;;;;;;1.90;0.60;;;;;;;0.68;78.83;98035.50;5049639;28;20025;-75
2023/02/01 02:01:28;;;;;;;4.25;1.25;;;;;;;0.66;78.75;98039.50;5049794;28;20067;-75
2023/02/01 02:03:54;;;;;;;2.22;0.82;;;;;;;0.66;79.13;98037.63;5049787;28;20037;-75
2023/02/01 02:06:36;;;;;;;1.45;0.52;;;;;;;0.65;78.27;98051.34;5049145;28;20041;-75
2023/02/01 02:09:03;;;;;;;2.47;1.05;;;;;;;0.66;80.17;98034.94;5049663;28;20053;-75
2023/02/01 02:11:28;;;;;;;2.08;1.10;;;;;;;0.61;80.18;98037.53;5049592;28;20507;-76
2023/02/01 02:13:56;;;;;;;5.70;1.80;;;;;;;0.60;80.22;98014.31;5049142;28;20025;-76
2023/02/01 02:16:40;;;;;;;2.97;1.40;;;;;;;0.59;80.15;98024.28;5049066;28;20028;-76
2023/02/01 02:19:24;;;;;;;2.78;1.70;;;;;;;0.61;80.57;98017.84;5048829;28;20025;-75
2023/02/01 02:22:19;;;;;;;2.67;1.10;;;;;;;0.61;80.62;98021.34;5049571;28;20116;-76
2023/02/01 02:25:15;;;;;;;2.13;0.80;;;;;;;0.60;80.28;98019.69;5047587;28;20466;-77
2023/02/01 02:27:56;;;;;;;1.40;0.50;;;;;;;0.61;80.07;98031.31;5048256;28;20107;-76
2023/02/01 02:31:03;;;;;;;1.85;0.70;;;;;;;0.57;80.47;98037.22;5048823;28;20112;-76
2023/02/01 02:33:46;;;;;;;3.22;0.70;;;;;;;0.60;80.36;98052.09;5046675;28;20033;-76
2023/02/01 02:36:12;;;;;;;1.27;0.50;;;;;;;0.62;80.69;98051.81;5047741;28;20024;-76
2023/02/01 02:38:44;;;;;;;2.13;0.60;;;;;;;0.67;80.71;98044.66;5047881;28;20556;-77
2023/02/01 02:47:27;;;;;;;0.95;0.40;;;;;;;0.66;80.29;98016.03;5048587;28;20850;-76
2023/02/01 02:55:50;;;;;;;2.10;0.65;;;;;;;0.72;80.11;98006.97;5047879;28;20090;-76
2023/02/01 03:04:09;;;;;;;0.75;0.60;;;;;;;0.84;80.34;98014.16;5049056;28;20051;-76
2023/02/01 03:06:36;;;;;;;0.60;0.60;;;;;;;0.83;80.07;98004.44;5045809;28;20416;-76
2023/02/01 03:09:06;;;;;;;0.70;0.70;;;;;;;0.84;80.15;98003.38;5050613;28;20071;-77
2023/02/01 03:14:21;;;;;;;1.08;0.90;;;;;;;0.94;80.09;98002.75;5047900;28;20082;-76
2023/02/01 03:16:52;;;;;;;;;;;;;;;0.97;80.10;97992.25;5047498;28;20052;-76
2023/02/01 03:19:49;;;;;;;1.35;1.00;;;;;;;0.99;79.69;98005.53;5048557;28;19975;-77
2023/02/01 03:22:31;;;;;;;1.02;0.70;;;;;;;1.02;80.23;98002.31;5038617;28;20040;-77
2023/02/01 03:25:04;;;;;;;1.30;1.00;;;;;;;1.01;80.02;98003.41;5047486;28;20120;-77
2023/02/01 03:27:38;;;;;;;0.98;0.90;;;;;;;1.00;80.02;98002.56;5048769;28;20033;-77
2023/02/01 03:30:25;;;;;;;1.90;0.90;;;;;;;1.01;79.74;98011.50;5048520;28;20362;-77
2023/02/01 03:33:01;;;;;;;1.30;1.00;;;;;;;1.06;79.38;98005.34;5048958;28;20029;-77
2023/02/01 03:35:42;;;;;;;1.85;1.10;;;;;;;1.07;79.34;98015.91;5046604;28;20056;-76
2023/02/01 03:38:18;;;;;;;1.42;1.33;;;;;;;1.11;79.50;98018.94;5051494;28;20052;-76
2023/02/01 03:40:48;;;;;;;2.75;1.75;;;;;;;1.15;79.22;98025.50;5052661;28;20389;-78
2023/02/01 03:43:17;;;;;;;2.78;1.10;;;;;;;1.21;79.81;98027.22;5052766;28;20028;-78
2023/02/01 03:45:58;;;;;;;2.33;1.42;;;;;;;1.26;79.54;98026.47;5049767;28;20104;-78
2023/02/01 03:48:27;;;;;;;0.90;0.85;;;;;;;1.31;79.57;98024.66;5050904;28;20044;-77
2023/02/01 03:50:55;;;;;;;1.30;1.20;;;;;;;1.37;79.45;98022.88;5052172;28;20013;-77
2023/02/01 03:53:24;;;;;;;1.88;1.60;;;;;;;1.41;79.19;98025.88;5050859;28;20068;-76
2023/02/01 03:55:52;;;;;;;3.03;2.00;;;;;;;1.42;79.21;98039.16;5051941;28;20027;-77
2023/02/01 03:58:20;;;;;;;35.97;11.02;;;;;;;1.43;79.33;98048.06;5052192;28;20016;-77
2023/02/01 04:00:56;;;;;;;10.43;3.72;;;;;;;1.42;79.16;98049.97;5052064;28;20028;-76
2023/02/01 04:03:22;;;;;;;6.90;3.00;;;;;;;1.43;79.57;98053.47;5049599;28;20473;-77
2023/02/01 04:05:52;;;;;;;5.45;3.13;;;;;;;1.41;79.21;98044.81;5052103;28;20037;-77
2023/02/01 04:08:21;;;;;;;15.82;8.07;;;;;;;1.43;78.66;98048.06;5052559;28;20547;-77
2023/02/01 04:10:46;;;;;;;15.93;6.90;;;;;;;1.43;78.64;98032.66;5050703;28;20028;-77
2023/02/01 04:13:12;;;;;;;8.55;3.78;;;;;;;1.45;78.77;98035.94;5052246;28;20025;-77
2023/02/01 04:15:38;;;;;;;5.43;3.58;;;;;;;1.45;78.46;98038.66;5051486;28;20477;-77
2023/02/01 04:18:03;;;;;;;3.90;1.88;;;;;;;1.47;79.08;98030.31;5050528;28;20033;-77
2023/02/01 04:20:29;;;;;;;3.70;2.60;;;;;;;1.48;79.35;98027.34;5053088;28;20029;-78
2023/02/01 04:22:54;;;;;;;4.63;2.30;;;;;;;1.47;78.64;98023.00;5053366;28;20439;-77
2023/02/01 04:25:20;;;;;;;4.50;1.73;;;;;;;1.45;78.64;98027.03;5052855;28;20032;-77
2023/02/01 04:27:46;;;;;;;2.97;1.98;;;;;;;1.43;78.74;98021.88;5053651;28;20032;-77
2023/02/01 04:30:12;;;;;;;2.35;1.83;;;;;;;1.43;78.51;98021.06;5052522;28;20025;-77
2023/02/01 04:32:38;;;;;;;5.65;2.30;;;;;;;1.43;78.63;98015.66;5051975;28;20128;-77
2023/02/01 04:35:04;;;;;;;4.45;1.83;;;;;;;1.39;78.08;98012.63;5052160;28;20132;-78
2023/02/01 04:37:29;;;;;;;4.40;1.92;;;;;;;1.34;78.48;98009.84;5052754;28;20052;-78
2023/02/01 04:39:55;;;;;;;5.60;2.10;;;;;;;1.28;78.35;98014.34;5053291;28;20385;-78
2023/02/01 04:42:20;;;;;;;7.60;2.63;;;;;;;1.24;78.96;98023.19;5053006;28;20092;-77
2023/02/01 04:44:46;;;;;;;8.18;2.42;;;;;;;1.17;78.60;98015.28;5052708;28;20028;-77
2023/02/01 04:47:11;;;;;;;7.90;2.70;;;;;;;1.15;78.50;98020.09;5051989;28;20074;-77
2023/02/01 04:49:37;;;;;;;7.55;2.78;;;;;;;1.13;78.05;98024.94;5051794;28;20432;-77
2023/02/01 04:52:02;;;;;;;6.15;2.50;;;;;;;1.13;78.10;98020.31;5053054;28;20036;-77
2023/02/01 04:54:27;;;;;;;7.63;2.67;;;;;;;1.15;78.58;98023.59;5052640;28;20025;-77
2023/02/01 04:56:53;;;;;;;6.28;2.28;;;;;;;1.18;78.74;98019.59;5052390;28;20040;-77
2023/02/01 04:59:18;;;;;;;8.40;2.10;;;;;;;1.22;78.53;98022.63;5052526;28;20039;-77
2023/02/01 05:01:44;;;;;;;4.85;1.63;;;;;;;1.25;78.87;98030.25;5052187;28;20443;-77
2023/02/01 05:04:09;;;;;;;3.97;1.55;;;;;;;1.28;78.75;98021.66;5052597;28;20028;-78
2023/02/01 05:06:35;;;;;;;4.43;1.67;;;;;;;1.30;78.62;98028.44;5051640;28;20029;-77
2023/02/01 05:09:00;;;;;;;5.03;1.30;;;;;;;1.30;78.45;98020.31;5053567;28;20388;-76
2023/02/01 05:14:10;;;;;;;4.88;1.30;;;;;;;1.31;78.47;98026.56;5052512;28;20060;-77
2023/02/01 05:16:35;;;;;;;7.07;2.65;;;;;;;1.32;78.57;98026.28;5051131;28;20471;-77
2023/02/01 05:19:00;;;;;;;4.75;2.05;;;;;;;1.32;78.33;98026.28;5052025;28;20413;-77
2023/02/01 05:21:26;;;;;;;4.45;1.77;;;;;;;1.36;78.11;98023.94;5053356;28;20033;-77
2023/02/01 05:24:09;;;;;;;4.93;1.80;;;;;;;1.36;77.82;98015.00;5051985;28;20075;-76
2023/02/01 05:26:39;;;;;;;3.67;1.80;;;;;;;1.40;78.41;98022.38;5051586;28;20029;-77
2023/02/01 05:29:05;;;;;;;6.53;2.65;;;;;;;1.41;78.54;98023.19;5051723;28;20029;-77
2023/02/01 05:31:31;;;;;;;7.43;2.85;;;;;;;1.41;78.14;98024.03;5052000;28;20144;-77
2023/02/01 05:33:56;;;;;;;5.07;2.53;;;;;;;1.42;78.28;98017.56;5049276;28;20095;-78
2023/02/01 05:36:22;;;;;;;6.68;5.05;;;;;;;1.45;78.53;98014.31;5050547;28;20029;-78
2023/02/01 05:38:47;;;;;;;5.72;3.22;;;;;;;1.50;77.96;98016.31;5048770;28;20048;-77
2023/02/01 05:41:12;;;;;;;8.80;2.90;;;;;;;1.52;78.47;98022.28;5050864;28;20055;-77
2023/02/01 05:43:38;;;;;;;6.97;2.70;;;;;;;1.53;78.16;98010.41;5045834;28;20033;-77
2023/02/01 05:46:03;;;;;;;5.72;2.60;;;;;;;1.54;77.96;98017.44;5050212;28;20099;-77
2023/02/01 05:48:29;;;;;;;6.55;3.00;;;;;;;1.55;77.58;98018.25;5050771;28;20496;-76
2023/02/01 05:50:54;;;;;;;9.18;2.70;;;;;;;1.58;77.62;98013.19;5049302;28;20027;-77
2023/02/01 05:53:20;;;;;;;7.05;2.67;;;;;;;1.60;78.33;98007.53;5049788;28;20040;-77
2023/02/01 05:55:45;;;;;;;8.60;3.00;;;;;;;1.60;77.73;98002.09;5050397;28;20374;-77
2023/02/01 05:58:12;;;;;;;8.57;2.72;;;;;;;1.61;78.26;98001.88;5049254;28;20059;-77
2023/02/01 06:00:38;;;;;;;7.95;2.88;;;;;;;1.62;77.65;98002.69;5049703;28;20071;-77
2023/02/01 06:03:03;;;;;;;8.75;2.80;;;;;;;1.61;77.82;98003.75;5048754;28;20040;-77
2023/02/01 06:05:28;;;;;;;7.03;2.40;;;;;;;1.60;77.72;98011.06;5051138;28;20025;-77
2023/02/01 06:07:54;;;;;;;7.00;2.72;;;;;;;1.60;77.37;98011.06;5049930;28;20079;-77
2023/02/01 06:10:20;;;;;;;4.97;2.10;;;;;;;1.61;78.03;98010.00;5049887;28;20068;-77
2023/02/01 06:12:46;;;;;;;6.15;2.38;;;;;;;1.61;77.84;98018.09;5051180;28;20473;-77
2023/02/01 06:15:12;;;;;;;7.20;2.67;;;;;;;1.64;77.48;98019.47;5050561;28;20021;-76
2023/02/01 06:17:39;;;;;;;8.20;3.20;;;;;;;1.64;77.86;98019.47;5046256;28;20037;-78
2023/02/01 06:20:06;;;;;;;11.50;3.38;;;;;;;1.66;77.65;98024.63;5049903;28;20108;-77
2023/02/01 06:22:32;;;;;;;12.90;5.13;;;;;;;1.64;77.75;98022.16;5050247;28;20108;-78
2023/02/01 06:24:58;;;;;;;13.70;6.10;;;;;;;1.61;77.52;98015.41;5054112;28;20619;-77
2023/02/01 06:27:24;;;;;;;12.82;5.22;;;;;;;1.59;77.57;98012.13;5050478;28;20086;-77
2023/02/01 06:29:50;;;;;;;13.30;5.85;;;;;;;1.58;76.76;98015.06;5048308;28;20447;-79
2023/02/01 06:32:17;;;;;;;11.00;5.15;;;;;;;1.56;76.74;98020.72;5050525;28;20029;-79
2023/02/01 06:34:43;;;;;;;15.02;6.03;;;;;;;1.53;77.19;98014.97;5051801;28;20082;-79
2023/02/01 06:37:08;;;;;;;17.55;6.47;;;;;;;1.52;76.84;98010.63;5047671;28;20061;-77
2023/02/01 06:39:34;;;;;;;11.88;5.93;;;;;;;1.49;77.45;98007.38;5049142;28;20068;-78
2023/02/01 06:41:59;;;;;;;14.13;7.93;;;;;;;1.48;76.99;98003.03;5049222;28;20036;-77
2023/02/01 06:44:25;;;;;;;16.05;6.40;;;;;;;1.50;77.15;98005.50;5049305;28;20451;-75
2023/02/01 06:46:50;;;;;;;17.17;5.80;;;;;;;1.49;76.58;98010.06;5048602;28;20028;-76
2023/02/01 06:49:15;;;;;;;13.43;5.55;;;;;;;1.50;77.03;97994.69;5048028;28;20712;-78
2023/02/01 06:51:41;;;;;;;13.95;6.25;;;;;;;1.49;76.68;98001.16;5049042;28;20017;-78
2023/02/01 06:54:06;;;;;;;11.68;5.57;;;;;;;1.48;77.13;97996.81;5049184;28;20385;-78
2023/02/01 06:56:31;;;;;;;30.05;19.40;;;;;;;1.49;77.49;97999.25;5052496;28;20040;-77
2023/02/01 06:58:57;;;;;;;26.70;17.23;;;;;;;1.50;77.39;97986.56;5045341;28;20168;-76
2023/02/01 07:01:22;;;;;;;17.23;11.05;;;;;;;1.54;76.73;97989.59;5047139;28;20025;-76
2023/02/01 07:03:51;;;;;;;18.40;11.27;;;;;;;1.52;76.77;97992.56;5049017;28;20388;-79
2023/02/01 07:06:17;;;;;;;13.57;6.10;;;;;;;1.55;76.89;97994.75;5046801;28;20547;-76
2023/02/01 07:08:43;;;;;;;13.15;6.55;;;;;;;1.56;77.52;97999.09;5049177;28;20036;-75
2023/02/01 07:11:11;;;;;;;15.77;6.95;;;;;;;1.56;76.91;98004.50;5051236;28;20033;-75
2023/02/01 07:13:37;;;;;;;11.07;5.70;;;;;;;1.56;76.83;97999.09;5052405;28;20029;-76
2023/02/01 07:16:07;;;;;;;14.02;6.13;;;;;;;1.56;76.69;97999.09;5051125;28;20025;-75
2023/02/01 07:18:33;;;;;;;15.00;7.18;;;;;;;1.57;77.29;98000.75;5052819;28;20040;-75
2023/02/01 07:20:59;;;;;;;15.05;6.32;;;;;;;1.59;77.08;98003.19;5053258;28;20370;-75
2023/02/01 07:23:25;;;;;;;15.45;6.97;;;;;;;1.60;76.61;98000.25;5052903;28;20366;-75
2023/02/01 07:25:59;;;;;;;16.00;6.40;;;;;;;1.59;76.60;98004.00;5051615;28;20033;-76
2023/02/01 07:28:25;;;;;;;13.15;6.30;;;;;;;1.60;76.58;98002.94;5052445;28;20485;-76
2023/02/01 07:30:51;;;;;;;12.43;6.15;;;;;;;1.63;76.74;98002.41;5052800;28;20021;-76
2023/02/01 07:33:22;;;;;;;15.85;7.88;;;;;;;1.64;76.92;98003.25;5049264;28;20056;-76
2023/02/01 07:35:49;;;;;;;15.20;6.97;;;;;;;1.66;77.45;98008.41;5051949;28;20493;-76
2023/02/01 07:38:16;;;;;;;16.88;8.38;;;;;;;1.68;76.86;98001.69;5051632;28;20406;-76
2023/02/01 07:40:41;;;;;;;15.98;8.02;;;;;;;1.69;76.50;98008.72;5052444;28;20036;-75
2023/02/01 07:43:07;;;;;;;16.98;7.78;;;;;;;1.74;76.63;98013.38;5053040;28;20021;-75
2023/02/01 07:45:34;;;;;;;19.38;8.88;;;;;;;1.77;77.28;98016.41;5050494;28;20040;-76
2023/02/01 07:47:59;;;;;;;19.52;10.73;;;;;;;1.79;76.78;98010.75;5051226;28;20120;-78
2023/02/01 07:50:25;;;;;;;20.08;11.65;;;;;;;1.82;77.09;98017.56;5051758;28;20021;-76
2023/02/01 07:52:53;;;;;;;25.30;14.40;;;;;;;1.83;76.79;98009.19;5052815;28;20036;-76
2023/02/01 07:55:19;;;;;;;21.55;12.68;;;;;;;1.85;77.08;98003.50;5050083;28;20037;-79
2023/02/01 07:57:44;;;;;;;27.60;15.15;;;;;;;1.87;76.36;98012.19;5049742;28;20094;-77
2023/02/01 08:02:57;;;;;;;28.30;16.27;;;;;;;1.89;76.92;98007.34;5050048;28;20040;-77
2023/02/01 08:05:22;;;;;;;61.67;35.05;;;;;;;1.90;76.65;98003.59;5051835;28;20313;-75
2023/02/01 08:07:51;;;;;;;80.55;38.92;;;;;;;1.91;76.88;98011.47;5051598;28;20590;-77
2023/02/01 08:10:17;;;;;;;56.30;28.67;;;;;;;1.94;76.45;98002.00;5051819;28;20021;-76
2023/02/01 08:12:47;;;;;;;58.00;28.48;;;;;;;1.97;76.84;98003.41;5052044;28;20394;-79
2023/02/01 08:15:14;;;;;;;60.53;30.13;;;;;;;1.99;76.65;97990.47;5050649;28;20118;-81
2023/02/01 08:17:39;;;;;;;50.17;24.95;;;;;;;1.99;76.74;97993.97;5052785;28;20401;-75
2023/02/01 08:20:05;;;;;;;33.15;17.30;;;;;;;2.03;76.60;97995.09;5050288;28;20043;-76
2023/02/01 08:22:35;;;;;;;38.47;18.45;;;;;;;2.02;76.40;97996.16;5050971;28;20024;-75
2023/02/01 08:25:01;;;;;;;33.42;15.63;;;;;;;2.03;76.13;97992.41;5047525;28;20025;-77
2023/02/01 08:27:27;;;;;;;30.90;15.93;;;;;;;2.02;76.59;97996.16;5049066;28;20040;-79
2023/02/01 08:29:53;;;;;;;30.88;16.85;;;;;;;2.02;76.79;97992.66;5046996;28;20044;-78
2023/02/01 08:32:19;;;;;;;22.23;10.35;;;;;;;2.04;76.94;97993.19;5049859;28;20025;-75
2023/02/01 08:34:44;;;;;;;21.58;10.18;;;;;;;2.05;76.78;97994.84;5050824;28;20029;-78
2023/02/01 08:37:09;;;;;;;20.77;10.70;;;;;;;2.08;76.76;97997.88;5051212;28;20481;-76
2023/02/01 08:39:36;;;;;;;21.88;10.38;;;;;;;2.12;76.15;97991.97;5049195;28;20060;-78
2023/02/01 08:44:45;;;;;;;42.47;30.75;;;;;;;2.19;76.34;97990.69;5051556;28;20472;-80
2023/02/01 08:47:11;;;;;;;37.97;25.17;;;;;;;2.26;76.37;97998.59;5050825;28;20048;-76
2023/02/01 08:49:36;;;;;;;26.45;17.00;;;;;;;2.31;76.34;97997.84;5049750;28;20096;-75
2023/02/01 08:52:02;;;;;;;27.85;20.05;;;;;;;2.34;76.58;97995.44;5050055;28;20115;-79
2023/02/01 08:54:27;;;;;;;31.55;19.55;;;;;;;2.38;76.24;97993.88;5049324;28;20025;-74
2023/02/01 08:56:54;;;;;;;20.70;12.65;;;;;;;2.43;75.93;97992.28;5050838;28;20025;-76
2023/02/01 08:59:19;;;;;;;20.50;12.50;;;;;;;2.45;76.09;97990.16;5050390;28;20068;-73
2023/02/01 09:01:44;;;;;;;21.52;12.30;;;;;;;2.46;75.60;97992.59;5051122;28;20064;-79
2023/02/01 09:04:10;;;;;;;23.23;13.77;;;;;;;2.47;75.98;97991.53;5050883;28;20103;-77
2023/02/01 09:06:35;;;;;;;24.73;14.38;;;;;;;2.46;76.38;97995.31;5049892;28;20025;-77
2023/02/01 09:09:01;;;;;;;27.08;11.85;;;;;;;2.48;75.55;97981.53;5049358;28;20036;-81
2023/02/01 09:11:26;;;;;;;27.45;14.48;;;;;;;2.52;75.54;97985.38;5049615;28;20033;-78
2023/02/01 09:13:51;;;;;;;28.67;16.17;;;;;;;2.55;75.42;97987.56;5048150;28;20064;-77
2023/02/01 09:16:17;;;;;;;26.67;15.32;;;;;;;2.58;75.90;97980.81;5049725;28;20032;-78
2023/02/01 09:18:42;;;;;;;27.20;15.88;;;;;;;2.62;75.39;97979.22;5049708;28;20032;-77
2023/02/01 09:21:08;;;;;;;31.50;19.33;;;;;;;2.64;76.07;97988.75;5049436;28;20135;-76
2023/02/01 09:23:34;;;;;;;18.92;9.98;;;;;;;2.66;75.17;97974.94;5049901;28;20105;-75
2023/02/01 09:26:04;;;;;;;22.00;11.18;;;;;;;2.69;75.43;97979.84;5050248;28;20028;-73
2023/02/01 09:28:29;;;;;;;21.00;11.18;;;;;;;2.73;75.66;97978.25;5047410;28;20029;-74
2023/02/01 09:30:58;;;;;;;19.05;8.95;;;;;;;2.79;75.36;97977.22;5046559;28;20671;-75
2023/02/01 09:33:25;;;;;;;26.15;13.48;;;;;;;2.82;75.50;97971.31;5049610;28;20082;-74
2023/02/01 09:35:58;;;;;;;19.10;9.65;;;;;;;2.85;75.31;97964.53;5049217;28;20029;-75
2023/02/01 09:38:25;;;;;;;19.48;8.90;;;;;;;2.88;76.09;97960.47;5049615;28;20097;-74
2023/02/01 09:40:51;;;;;;;23.38;10.82;;;;;;;2.90;75.70;97956.47;5049765;28;20051;-77
2023/02/01 09:43:16;;;;;;;20.15;9.52;;;;;;;2.91;75.01;97965.38;5047674;28;20473;-75
2023/02/01 09:46:03;;;;;;;21.40;10.52;;;;;;;2.92;75.26;97958.91;5046609;28;20485;-79
2023/02/01 09:48:32;;;;;;;23.05;11.32;;;;;;;2.94;75.19;97952.16;5047562;28;20067;-78
2023/02/01 09:50:59;;;;;;;20.70;10.77;;;;;;;2.97;75.36;97962.47;5050202;28;20049;-78
2023/02/01 09:53:33;;;;;;;20.58;9.80;;;;;;;3.02;75.12;97952.75;5050200;28;20477;-79
2023/02/01 09:56:07;;;;;;;20.50;10.88;;;;;;;3.05;74.92;97944.91;5050836;28;20033;-79
2023/02/01 09:58:44;;;;;;;28.55;11.45;;;;;;;3.08;74.74;97946.28;5049539;28;20032;-79
2023/02/01 10:01:19;;;;;;;20.92;10.60;;;;;;;3.08;75.00;97947.13;5053657;28;20079;-79
2023/02/01 10:03:45;;;;;;;18.52;9.60;;;;;;;3.13;75.29;97949.03;5047072;28;20028;-79
2023/02/01 10:06:30;;;;;;;22.38;10.68;;;;;;;3.15;74.98;97940.66;5047062;28;20029;-77
2023/02/01 10:09:20;;;;;;;19.65;9.23;;;;;;;3.19;74.81;97945.28;5051423;28;20029;-77
2023/02/01 10:11:56;;;;;;;22.52;11.40;;;;;;;3.18;74.53;97932.81;5050904;28;20029;-78
2023/02/01 10:14:37;;;;;;;21.27;9.20;;;;;;;3.19;74.63;97937.16;5049350;28;20025;-78
2023/02/01 10:17:08;;;;;;;19.23;7.82;;;;;;;3.17;74.29;97933.09;5041409;28;20040;-77
2023/02/01 10:19:53;;;;;;;21.27;9.85;;;;;;;3.17;74.20;97935.81;5049234;28;20032;-76
2023/02/01 10:23:07;;;;;;;21.25;8.25;;;;;;;3.16;75.15;97929.53;5048055;28;20496;-78
2023/02/01 10:25:44;;;;;;;19.83;8.68;;;;;;;3.17;73.96;97933.88;5041629;28;20033;-78
2023/02/01 10:28:16;;;;;;;27.60;11.77;;;;;;;3.18;74.27;97934.72;5049185;28;20064;-77
2023/02/01 10:30:47;;;;;;;22.50;10.95;;;;;;;3.18;74.42;97932.81;5049956;28;20096;-79
2023/02/01 10:33:22;;;;;;;22.20;9.05;;;;;;;3.18;73.89;97930.09;5050186;28;20436;-79
2023/02/01 10:36:02;;;;;;;19.77;8.30;;;;;;;3.20;74.29;97932.56;5049406;28;20029;-80
2023/02/01 10:38:30;;;;;;;18.58;7.28;;;;;;;3.22;73.66;97925.00;5049637;28;20056;-78
2023/02/01 10:41:02;;;;;;;20.70;7.38;;;;;;;3.23;74.42;97922.00;5049735;28;20021;-79
2023/02/01 10:43:28;;;;;;;17.90;6.63;;;;;;;3.29;74.36;97930.97;5050322;28;20041;-79
2023/02/01 10:45:53;;;;;;;13.20;5.60;;;;;;;3.34;74.54;97927.50;5049182;28;20021;-75
2023/02/01 10:48:19;;;;;;;15.70;5.97;;;;;;;3.41;74.42;97917.25;5049750;28;20039;-82
2023/02/01 10:50:58;;;;;;;17.48;8.30;;;;;;;3.47;74.35;97915.38;5040722;28;20036;-76
2023/02/01 10:53:35;;;;;;;10.50;5.53;;;;;;;3.52;74.40;97909.97;5041958;28;20060;-74
2023/02/01 10:56:07;;;;;;;15.32;6.35;;;;;;;3.52;73.44;97912.69;5047517;28;20021;-79
2023/02/01 10:58:33;;;;;;;12.13;5.03;;;;;;;3.53;73.57;97911.59;5043871;28;20424;-74
2023/02/01 11:01:04;;;;;;;13.65;6.18;;;;;;;3.53;73.66;97933.31;5045976;28;20392;-76
2023/02/01 11:03:37;;;;;;;12.55;6.20;;;;;;;3.55;74.12;97931.16;5044524;28;20029;-76
2023/02/01 11:06:11;;;;;;;10.80;4.55;;;;;;;3.52;73.78;97931.66;5047181;28;20055;-76
2023/02/01 11:08:55;;;;;;;14.75;5.30;;;;;;;3.46;73.33;97921.88;5044930;28;20069;-75
2023/02/01 11:11:21;;;;;;;8.68;4.18;;;;;;;3.46;73.18;97925.41;5046638;28;20025;-75
2023/02/01 11:14:13;;;;;;;11.82;4.80;;;;;;;3.48;73.39;97922.44;5046560;28;20041;-75
2023/02/01 11:16:39;;;;;;;13.43;5.28;;;;;;;3.49;73.66;97914.00;5047789;28;20045;-77
2023/02/01 11:19:06;;;;;;;13.55;6.75;;;;;;;3.53;74.36;97915.13;5049043;28;20398;-78
2023/02/01 11:21:33;;;;;;;8.38;4.03;;;;;;;3.52;73.84;97912.69;5048424;28;20575;-78
2023/02/01 11:24:08;;;;;;;8.98;4.22;;;;;;;3.48;73.72;97914.28;5047427;28;20652;-78
2023/02/01 11:26:41;;;;;;;9.85;4.43;;;;;;;3.47;74.10;97905.31;5048076;28;20056;-79
2023/02/01 11:29:13;;;;;;;7.93;4.03;;;;;;;3.47;73.84;97899.09;5048448;28;20422;-78
2023/02/01 11:31:40;;;;;;;9.50;4.30;;;;;;;3.50;74.39;97885.81;5047255;28;20104;-79
2023/02/01 11:34:18;;;;;;;9.73;4.43;;;;;;;3.54;73.96;97876.09;5047785;28;20115;-78
2023/02/01 11:36:46;;;;;;;11.85;5.53;;;;;;;3.61;74.17;97875.03;5044352;28;20037;-77
2023/02/01 11:39:14;;;;;;;9.73;5.18;;;;;;;3.65;74.35;97873.41;5045848;28;20116;-77
2023/02/01 11:41:43;;;;;;;6.13;4.00;;;;;;;3.66;74.14;97875.06;5045853;28;20107;-77
2023/02/01 11:44:37;;;;;;;7.78;3.78;;;;;;;3.66;73.77;97862.31;5044758;28;20028;-77
2023/02/01 11:47:24;;;;;;;10.95;4.40;;;;;;;3.70;74.09;97863.41;5042139;28;20022;-76
2023/02/01 11:49:52;;;;;;;7.88;4.03;;;;;;;3.78;74.51;97861.25;5047038;28;20843;-76
2023/02/01 11:52:40;;;;;;;8.93;4.03;;;;;;;3.81;73.83;97852.59;5046909;28;20025;-76
2023/02/01 11:55:22;;;;;;;8.27;5.10;;;;;;;3.82;73.35;97852.34;5048075;28;20053;-77
2023/02/01 11:58:03;;;;;;;12.18;5.40;;;;;;;3.80;73.99;97840.09;5048791;28;20032;-77
2023/02/01 12:00:50;;;;;;;8.88;4.90;;;;;;;3.80;73.69;97838.22;5049830;28;20037;-74
2023/02/01 12:03:49;;;;;;;11.30;4.72;;;;;;;3.78;74.09;97834.97;5049720;28;20350;-74
2023/02/01 12:06:30;;;;;;;8.75;4.22;;;;;;;3.83;73.49;97834.16;5049478;28;20486;-76
2023/02/01 12:09:18;;;;;;;9.63;4.45;;;;;;;3.86;73.98;97834.44;5050706;28;20067;-76
2023/02/01 12:12:01;;;;;;;10.43;5.43;;;;;;;3.86;73.53;97837.16;5049273;28;20093;-75
2023/02/01 12:14:56;;;;;;;11.38;6.10;;;;;;;3.85;73.78;97831.97;5050521;28;20017;-77
2023/02/01 12:17:32;;;;;;;11.93;7.57;;;;;;;3.90;73.03;97828.47;5051284;28;20037;-75